Aérodrome :
LOGIN :

S'inscrire | Disclaimer

   EN    FR    IT 

 










Légende :    VFR   VFR Marginal   IFR   IFR Intensif   IFR Très Intensif
Visi : 
Plafond : 
>= 8 km
>= 3000ft
5 à 8 km
1000 à 3000 ft
1500m à 5 km
500 à 1000 ft
800 à 1500m
200 à 500 ft
< 800m
< 200 ft
Symboles :   Orages  Brouillard  Fortes neiges  Fortes précipitations  Vent > 20 kt
SIGMETs :   Divers  Orages  Givrage  Turbulence  Onde Orograph.  Cendres Volcan.






- Altitude de l'aérodrome : 425 ft
- Code IATA : DTM


EDLW - Dortmund

DERNIER METAR :
  • 021520Z 21009KT 180V240 9999 FEW042 22/13 Q1011

METARs EXPIRÉS :
  • 021450Z 22009KT 9999 FEW043 21/12 Q1011
  • 021420Z 21010KT CAVOK 20/11 Q1011
  • 021350Z 21009KT CAVOK 20/13 Q1011
  • 021320Z 23007KT 9999 FEW024 19/13 Q1011
  • 021250Z 24007KT 210V290 9999 FEW015 SCT030 19/14 Q1011

TAF TAF EDLW
Valide du 02 à 12h jusqu'au 03 à 12h UTC


021100Z 0212/0312 24010KT 9999 SCT030
TEMPO 0212/0219 26015G25KT SHRA BKN025CB
BECMG 0217/0220 23005KT
BECMG 0304/0307 25010KT



MET'MAP, la Météo Aéronautique d'un coup d'oeil ! - Copyright ORBIFLY Décembre 2007 - Disclaimer

ORBIFLY MET'MAP TEAM :

Programmation & Développement : Alexandra Zaïnal
Sur une idée originale de : Baudouin d'Aumeries
Assistance à la programmation : Marc-Olivier Méhu
Soutien technique & logistique : Manuel Goepfert

Contact : metmap@orbifly.com




SOURCES & CREDITS :

   NOAA